X  SluitMetar Aviation Weather Data     EBBR Brussels

Temperatuur

12°C Temperatuur

10°C Dauwpunt

88% Vochtigheid



Wind

14 KM/H

 9 MPH

 4 M/S

 8 KTS



160°
Zuid Zuid
Oost
Huidig weer

Lichte regen Lichte regen
Luchtdruk 1001.92 (hPa) - 29.59 (in)
Zicht 6.2 (mi) - 10 (km)
Vliegveld
Airport-code EBBR

Locatie Brussels 14 (km)

Metar:
EBBR 241950Z 16008KT 9999 -RA FEW035 12/10 Q1002 TEMPO 4000 SHRA

Tijd: 2019-04-24 21:50